Time,TemperatureF,DewpointF,PressureIn,WindDirection,WindDirectionDegrees,WindSpeedMPH,WindSpeedGustMPH,Humidity,HourlyPrecipIn,Conditions,Clouds,dailyrainin,SoftwareType,DateUTC
2013-11-26 00:05:00,41.5,40.0,30.37,ENE,59,0.0,-999.0,93,-99.99,,,0.00,weatherlink.com 1.10,2013-11-26 05:05:00,
2013-11-26 00:21:00,41.6,40.0,30.36,NNE,33,1.0,-999.0,93,-99.99,,,0.00,weatherlink.com 1.10,2013-11-26 05:21:00,
2013-11-26 00:36:00,42.0,40.0,30.34,NNE,26,0.0,-999.0,94,-99.99,,,0.00,weatherlink.com 1.10,2013-11-26 05:36:00,
2013-11-26 00:51:00,42.2,40.0,30.34,NE,53,0.0,-999.0,93,-99.99,,,0.00,weatherlink.com 1.10,2013-11-26 05:51:00,
2013-11-26 01:06:00,42.5,41.0,30.34,NNE,25,0.0,-999.0,94,-99.99,,,0.00,weatherlink.com 1.10,2013-11-26 06:06:00,
2013-11-26 01:21:00,42.3,41.0,30.34,NE,38,3.0,-999.0,94,-99.99,,,0.00,weatherlink.com 1.10,2013-11-26 06:21:00,
2013-11-26 01:36:00,42.5,41.0,30.33,NE,34,0.0,-999.0,94,-99.99,,,0.00,weatherlink.com 1.10,2013-11-26 06:36:00,
2013-11-26 01:51:00,42.2,41.0,30.33,East,85,0.0,-999.0,95,-99.99,,,0.00,weatherlink.com 1.10,2013-11-26 06:51:00,
2013-11-26 02:06:00,43.4,42.0,30.32,NNE,17,0.0,-999.0,96,-99.99,,,0.00,weatherlink.com 1.10,2013-11-26 07:06:00,
2013-11-26 02:21:00,44.2,43.0,30.31,NE,52,1.0,-999.0,96,-99.99,,,0.00,weatherlink.com 1.10,2013-11-26 07:21:00,
2013-11-26 02:36:00,44.7,44.0,30.30,NE,49,1.0,-999.0,96,-99.99,,,0.00,weatherlink.com 1.10,2013-11-26 07:36:00,
2013-11-26 02:52:00,44.4,43.0,30.29,NE,36,0.0,-999.0,96,-99.99,,,0.00,weatherlink.com 1.10,2013-11-26 07:52:00,
2013-11-26 03:07:00,44.0,43.0,30.28,NE,35,0.0,-999.0,95,-99.99,,,0.00,weatherlink.com 1.10,2013-11-26 08:07:00,
2013-11-26 03:22:00,44.2,43.0,30.27,NE,56,3.0,-999.0,96,-99.99,,,0.00,weatherlink.com 1.10,2013-11-26 08:22:00,
2013-11-26 03:37:00,44.4,43.0,30.27,NE,46,0.0,-999.0,96,-99.99,,,0.00,weatherlink.com 1.10,2013-11-26 08:37:00,
2013-11-26 03:52:00,44.8,44.0,30.27,NE,41,1.0,-999.0,97,-99.99,,,0.00,weatherlink.com 1.10,2013-11-26 08:52:00,
2013-11-26 04:07:00,45.1,44.0,30.27,NE,39,0.0,-999.0,96,-99.99,,,0.00,weatherlink.com 1.10,2013-11-26 09:07:00,
2013-11-26 04:22:00,45.1,44.0,30.27,ENE,72,0.0,-999.0,96,-99.99,,,0.00,weatherlink.com 1.10,2013-11-26 09:22:00,
2013-11-26 04:37:00,45.2,44.0,30.26,ENE,72,0.0,-999.0,97,-99.99,,,0.00,weatherlink.com 1.10,2013-11-26 09:37:00,
2013-11-26 04:52:00,45.2,44.0,30.26,ENE,72,0.0,-999.0,97,-99.99,,,0.00,weatherlink.com 1.10,2013-11-26 09:52:00,
2013-11-26 05:07:00,45.4,45.0,30.26,ENE,71,0.0,-999.0,97,-99.99,,,0.00,weatherlink.com 1.10,2013-11-26 10:07:00,
2013-11-26 05:22:00,45.4,45.0,30.27,ENE,71,0.0,-999.0,97,-99.99,,,0.00,weatherlink.com 1.10,2013-11-26 10:22:00,
2013-11-26 05:38:00,45.7,45.0,30.26,NNE,32,0.0,-999.0,97,-99.99,,,0.00,weatherlink.com 1.10,2013-11-26 10:38:00,
2013-11-26 05:53:00,46.1,45.0,30.26,NNE,32,0.0,-999.0,97,-99.99,,,0.00,weatherlink.com 1.10,2013-11-26 10:53:00,
2013-11-26 06:08:00,46.3,46.0,30.25,North,360,0.0,-999.0,97,-99.99,,,0.00,weatherlink.com 1.10,2013-11-26 11:08:00,
2013-11-26 06:23:00,46.4,46.0,30.26,North,355,0.0,-999.0,97,-99.99,,,0.00,weatherlink.com 1.10,2013-11-26 11:23:00,
2013-11-26 06:38:00,46.5,46.0,30.25,North,352,0.0,-999.0,97,-99.99,,,0.00,weatherlink.com 1.10,2013-11-26 11:38:00,
2013-11-26 06:53:00,46.9,46.0,30.25,NE,39,0.0,-999.0,97,-99.99,,,0.00,weatherlink.com 1.10,2013-11-26 11:53:00,
2013-11-26 07:08:00,47.7,47.0,30.25,NNE,22,0.0,-999.0,97,-99.99,,,0.00,weatherlink.com 1.10,2013-11-26 12:08:00,
2013-11-26 07:23:00,51.2,51.0,30.25,South,175,0.0,-999.0,99,-99.99,,,0.00,weatherlink.com 1.10,2013-11-26 12:23:00,
2013-11-26 07:38:00,52.1,51.0,30.26,South,175,0.0,-999.0,95,-99.99,,,0.00,weatherlink.com 1.10,2013-11-26 12:38:00,
2013-11-26 07:53:00,53.5,52.0,30.25,SSW,197,2.0,-999.0,94,-99.99,,,0.00,weatherlink.com 1.10,2013-11-26 12:53:00,
2013-11-26 08:09:00,55.8,54.0,30.25,South,175,0.0,-999.0,92,-99.99,,,0.00,weatherlink.com 1.10,2013-11-26 13:09:00,
2013-11-26 08:24:00,57.7,55.0,30.25,SSE,164,2.0,-999.0,89,-99.99,,,0.00,weatherlink.com 1.10,2013-11-26 13:24:00,
2013-11-26 08:39:00,59.7,54.0,30.24,SSW,197,6.0,-999.0,81,-99.99,,,0.00,weatherlink.com 1.10,2013-11-26 13:39:00,
2013-11-26 08:54:00,60.3,54.0,30.23,SSW,196,0.0,-999.0,81,-99.99,,,0.00,weatherlink.com 1.10,2013-11-26 13:54:00,
2013-11-26 09:09:00,60.7,56.0,30.22,ENE,64,0.0,-999.0,83,-99.99,,,0.00,weatherlink.com 1.10,2013-11-26 14:09:00,
2013-11-26 09:24:00,61.3,56.0,30.22,SSW,196,1.0,-999.0,82,-99.99,,,0.00,weatherlink.com 1.10,2013-11-26 14:24:00,
2013-11-26 09:39:00,62.0,56.0,30.21,South,185,3.0,-999.0,82,-99.99,,,0.00,weatherlink.com 1.10,2013-11-26 14:39:00,
2013-11-26 09:54:00,62.2,56.0,30.21,South,175,4.0,-999.0,81,-99.99,,,0.00,weatherlink.com 1.10,2013-11-26 14:54:00,
2013-11-26 10:09:00,62.1,57.0,30.20,SE,143,2.0,-999.0,84,-99.99,,,0.00,weatherlink.com 1.10,2013-11-26 15:09:00,
2013-11-26 10:25:00,62.7,58.0,30.19,SSE,164,0.0,-999.0,85,-99.99,,,0.00,weatherlink.com 1.10,2013-11-26 15:25:00,
2013-11-26 10:40:00,62.6,58.0,30.18,South,180,2.0,-999.0,84,-99.99,,,0.00,weatherlink.com 1.10,2013-11-26 15:40:00,
2013-11-26 10:55:00,63.0,58.0,30.18,South,170,9.0,-999.0,83,-99.99,,,0.00,weatherlink.com 1.10,2013-11-26 15:55:00,
2013-11-26 11:10:00,63.9,58.0,30.17,SSW,204,4.0,-999.0,82,-99.99,,,0.00,weatherlink.com 1.10,2013-11-26 16:10:00,
2013-11-26 11:25:00,64.5,59.0,30.15,SE,143,3.0,-999.0,81,-99.99,,,0.00,weatherlink.com 1.10,2013-11-26 16:25:00,
2013-11-26 11:40:00,62.8,59.0,30.14,SSW,197,4.0,-999.0,87,-99.99,,,0.00,weatherlink.com 1.10,2013-11-26 16:40:00,
2013-11-26 11:55:00,63.0,59.0,30.11,SSW,197,4.0,-999.0,86,-99.99,,,0.00,weatherlink.com 1.10,2013-11-26 16:55:00,
2013-11-26 12:10:00,62.3,58.0,30.11,South,175,9.0,-999.0,86,-99.99,,,0.00,weatherlink.com 1.10,2013-11-26 17:10:00,
2013-11-26 12:25:00,60.7,58.0,30.10,SSW,204,7.0,-999.0,91,-99.99,,,0.01,weatherlink.com 1.10,2013-11-26 17:25:00,
2013-11-26 12:41:00,61.4,60.0,30.08,SSW,212,4.0,-999.0,95,-99.99,,,0.01,weatherlink.com 1.10,2013-11-26 17:41:00,
2013-11-26 12:56:00,61.9,60.0,30.08,South,185,16.0,-999.0,94,-99.99,,,0.01,weatherlink.com 1.10,2013-11-26 17:56:00,
2013-11-26 13:11:00,60.8,59.0,30.07,SSW,199,8.0,-999.0,93,-99.99,,,0.02,weatherlink.com 1.10,2013-11-26 18:11:00,
2013-11-26 13:26:00,61.3,60.0,30.06,South,175,6.0,-999.0,94,-99.99,,,0.02,weatherlink.com 1.10,2013-11-26 18:26:00,
2013-11-26 13:41:00,61.8,60.0,30.05,South,175,10.0,-999.0,93,-99.99,,,0.02,weatherlink.com 1.10,2013-11-26 18:41:00,
2013-11-26 13:56:00,60.7,59.0,30.05,South,180,5.0,-999.0,94,-99.99,,,0.02,weatherlink.com 1.10,2013-11-26 18:56:00,
2013-11-26 14:11:00,61.3,60.0,30.04,South,189,10.0,-999.0,94,-99.99,,,0.02,weatherlink.com 1.10,2013-11-26 19:11:00,
2013-11-26 14:26:00,60.7,60.0,30.02,SE,129,6.0,-999.0,96,-99.99,,,0.03,weatherlink.com 1.10,2013-11-26 19:26:00,
2013-11-26 14:41:00,60.4,59.0,30.02,South,180,8.0,-999.0,94,-99.99,,,0.03,weatherlink.com 1.10,2013-11-26 19:41:00,
2013-11-26 14:56:00,60.9,60.0,30.00,South,185,7.0,-999.0,95,-99.99,,,0.03,weatherlink.com 1.10,2013-11-26 19:56:00,
2013-11-26 15:11:00,61.2,60.0,30.00,South,185,7.0,-999.0,94,-99.99,,,0.03,weatherlink.com 1.10,2013-11-26 20:11:00,
2013-11-26 15:27:00,60.7,58.0,30.00,South,190,7.0,-999.0,92,-99.99,,,0.03,weatherlink.com 1.10,2013-11-26 20:27:00,
2013-11-26 15:42:00,60.4,59.0,29.99,SSW,204,5.0,-999.0,95,-99.99,,,0.04,weatherlink.com 1.10,2013-11-26 20:42:00,
2013-11-26 15:57:00,61.0,60.0,29.98,SSE,166,10.0,-999.0,96,-99.99,,,0.04,weatherlink.com 1.10,2013-11-26 20:57:00,
2013-11-26 16:12:00,61.5,60.0,29.97,SSW,205,10.0,-999.0,95,-99.99,,,0.04,weatherlink.com 1.10,2013-11-26 21:12:00,
2013-11-26 16:27:00,61.8,60.0,29.96,South,180,9.0,-999.0,95,-99.99,,,0.04,weatherlink.com 1.10,2013-11-26 21:27:00,
2013-11-26 16:42:00,61.7,60.0,29.95,South,190,11.0,-999.0,95,-99.99,,,0.05,weatherlink.com 1.10,2013-11-26 21:42:00,
2013-11-26 16:57:00,61.6,60.0,29.93,South,180,12.0,-999.0,95,-99.99,,,0.05,weatherlink.com 1.10,2013-11-26 21:57:00,
2013-11-26 17:12:00,62.1,61.0,29.92,South,170,12.0,-999.0,95,-99.99,,,0.05,weatherlink.com 1.10,2013-11-26 22:12:00,
2013-11-26 17:27:00,62.6,61.0,29.91,South,171,14.0,-999.0,95,-99.99,,,0.05,weatherlink.com 1.10,2013-11-26 22:27:00,
2013-11-26 17:43:00,62.8,62.0,29.90,South,189,12.0,-999.0,96,-99.99,,,0.05,weatherlink.com 1.10,2013-11-26 22:43:00,
2013-11-26 17:58:00,62.3,61.0,29.89,South,180,9.0,-999.0,95,-99.99,,,0.05,weatherlink.com 1.10,2013-11-26 22:58:00,
2013-11-26 18:13:00,62.9,62.0,29.89,SSW,199,11.0,-999.0,95,-99.99,,,0.05,weatherlink.com 1.10,2013-11-26 23:13:00,
2013-11-26 18:28:00,63.2,62.0,29.88,SSE,163,12.0,-999.0,96,-99.99,,,0.05,weatherlink.com 1.10,2013-11-26 23:28:00,
2013-11-26 18:43:00,63.5,62.0,29.87,SSE,154,15.0,-999.0,95,-99.99,,,0.05,weatherlink.com 1.10,2013-11-26 23:43:00,
2013-11-26 18:58:00,63.6,62.0,29.87,SSE,158,11.0,-999.0,94,-99.99,,,0.05,weatherlink.com 1.10,2013-11-26 23:58:00,
2013-11-26 19:13:00,64.1,62.0,29.86,SSW,192,12.0,-999.0,93,-99.99,,,0.05,weatherlink.com 1.10,2013-11-27 00:13:00,
2013-11-26 19:28:00,64.1,62.0,29.85,SSE,155,11.0,-999.0,92,-99.99,,,0.05,weatherlink.com 1.10,2013-11-27 00:28:00,
2013-11-26 19:43:00,64.3,63.0,29.82,South,190,10.0,-999.0,94,-99.99,,,0.07,weatherlink.com 1.10,2013-11-27 00:43:00,
2013-11-26 19:58:00,63.8,62.0,29.81,South,175,12.0,-999.0,95,-99.99,,,0.09,weatherlink.com 1.10,2013-11-27 00:58:00,
2013-11-26 20:14:00,63.6,62.0,29.81,South,185,14.0,-999.0,95,-99.99,,,0.13,weatherlink.com 1.10,2013-11-27 01:14:00,
2013-11-26 20:29:00,63.9,63.0,29.81,SSW,197,9.0,-999.0,95,-99.99,,,0.14,weatherlink.com 1.10,2013-11-27 01:29:00,
2013-11-26 20:44:00,63.8,63.0,29.80,SSW,192,13.0,-999.0,96,-99.99,,,0.16,weatherlink.com 1.10,2013-11-27 01:44:00,
2013-11-26 20:59:00,64.0,63.0,29.79,South,171,14.0,-999.0,96,-99.99,,,0.20,weatherlink.com 1.10,2013-11-27 01:59:00,
2013-11-26 21:14:00,63.9,63.0,29.77,SSE,155,14.0,-999.0,97,-99.99,,,0.29,weatherlink.com 1.10,2013-11-27 02:14:00,
2013-11-26 21:29:00,64.4,64.0,29.75,South,185,10.0,-999.0,98,-99.99,,,0.35,weatherlink.com 1.10,2013-11-27 02:29:00,
2013-11-26 21:44:00,64.5,64.0,29.74,SSE,168,10.0,-999.0,98,-99.99,,,0.42,weatherlink.com 1.10,2013-11-27 02:44:00,
2013-11-26 22:14:00,65.8,65.0,29.70,SSW,197,10.0,-999.0,98,-99.99,,,0.57,weatherlink.com 1.10,2013-11-27 03:14:00,
2013-11-26 22:30:00,66.4,66.0,29.68,SSE,166,13.0,-999.0,98,-99.99,,,0.66,weatherlink.com 1.10,2013-11-27 03:30:00,
2013-11-26 22:45:00,64.2,63.0,29.71,SSW,204,15.0,-999.0,97,-99.99,,,0.94,weatherlink.com 1.10,2013-11-27 03:45:00,
2013-11-26 23:00:00,66.3,66.0,29.73,SW,228,23.0,-999.0,99,-99.99,,,1.25,weatherlink.com 1.10,2013-11-27 04:00:00,
2013-11-26 23:15:00,65.1,65.0,29.70,SW,228,14.0,-999.0,98,-99.99,,,1.55,weatherlink.com 1.10,2013-11-27 04:15:00,
2013-11-26 23:30:00,63.2,63.0,29.69,SSW,212,8.0,-999.0,98,-99.99,,,1.55,weatherlink.com 1.10,2013-11-27 04:30:00,
2013-11-26 23:45:00,62.6,62.0,29.69,SSW,212,10.0,-999.0,98,-99.99,,,1.55,weatherlink.com 1.10,2013-11-27 04:45:00,